sensor_id;sensor_type;location;lat;lon;timestamp;P1;durP1;ratioP1;P2;durP2;ratioP2
74793;SDS011;63320;50.768;6.724;2024-02-26T00:01:48;3.33;;;1.05;;
74793;SDS011;63320;50.768;6.724;2024-02-26T00:04:14;4.43;;;1.10;;
74793;SDS011;63320;50.768;6.724;2024-02-26T00:06:39;5.45;;;1.20;;
74793;SDS011;63320;50.768;6.724;2024-02-26T00:09:06;3.83;;;1.20;;
74793;SDS011;63320;50.768;6.724;2024-02-26T00:11:31;3.60;;;1.13;;
74793;SDS011;63320;50.768;6.724;2024-02-26T00:13:57;2.90;;;0.90;;
74793;SDS011;63320;50.768;6.724;2024-02-26T00:16:22;3.00;;;1.13;;
74793;SDS011;63320;50.768;6.724;2024-02-26T00:18:48;2.92;;;1.10;;
74793;SDS011;63320;50.768;6.724;2024-02-26T00:21:13;4.43;;;0.98;;
74793;SDS011;63320;50.768;6.724;2024-02-26T00:23:38;2.88;;;1.25;;
74793;SDS011;63320;50.768;6.724;2024-02-26T00:26:05;3.92;;;1.27;;
74793;SDS011;63320;50.768;6.724;2024-02-26T00:28:30;2.70;;;0.95;;
74793;SDS011;63320;50.768;6.724;2024-02-26T00:30:56;5.18;;;1.70;;
74793;SDS011;63320;50.768;6.724;2024-02-26T00:33:21;2.63;;;1.08;;
74793;SDS011;63320;50.768;6.724;2024-02-26T00:35:47;3.33;;;1.10;;
74793;SDS011;63320;50.768;6.724;2024-02-26T00:38:13;4.60;;;1.00;;
74793;SDS011;63320;50.768;6.724;2024-02-26T00:40:38;3.53;;;1.10;;
74793;SDS011;63320;50.768;6.724;2024-02-26T00:43:05;2.33;;;0.90;;
74793;SDS011;63320;50.768;6.724;2024-02-26T00:45:30;2.83;;;0.90;;
74793;SDS011;63320;50.768;6.724;2024-02-26T00:47:55;3.45;;;0.80;;
74793;SDS011;63320;50.768;6.724;2024-02-26T00:50:21;2.95;;;0.82;;
74793;SDS011;63320;50.768;6.724;2024-02-26T00:52:46;3.38;;;1.00;;
74793;SDS011;63320;50.768;6.724;2024-02-26T00:55:12;3.05;;;0.93;;
74793;SDS011;63320;50.768;6.724;2024-02-26T00:57:37;2.95;;;0.82;;
74793;SDS011;63320;50.768;6.724;2024-02-26T01:00:04;3.30;;;0.80;;
74793;SDS011;63320;50.768;6.724;2024-02-26T01:02:30;2.83;;;0.90;;
74793;SDS011;63320;50.768;6.724;2024-02-26T01:04:56;2.10;;;0.90;;
74793;SDS011;63320;50.768;6.724;2024-02-26T01:07:21;2.45;;;0.80;;
74793;SDS011;63320;50.768;6.724;2024-02-26T01:09:47;3.75;;;1.00;;
74793;SDS011;63320;50.768;6.724;2024-02-26T01:12:12;2.50;;;1.27;;
74793;SDS011;63320;50.768;6.724;2024-02-26T01:14:37;2.78;;;0.90;;
74793;SDS011;63320;50.768;6.724;2024-02-26T01:17:04;3.00;;;1.00;;
74793;SDS011;63320;50.768;6.724;2024-02-26T01:19:30;2.30;;;0.90;;
74793;SDS011;63320;50.768;6.724;2024-02-26T01:21:55;1.50;;;0.80;;
74793;SDS011;63320;50.768;6.724;2024-02-26T01:24:20;3.60;;;0.93;;
74793;SDS011;63320;50.768;6.724;2024-02-26T01:26:46;3.50;;;1.00;;
74793;SDS011;63320;50.768;6.724;2024-02-26T01:29:11;3.60;;;0.90;;
74793;SDS011;63320;50.768;6.724;2024-02-26T01:31:37;2.08;;;0.80;;
74793;SDS011;63320;50.768;6.724;2024-02-26T01:34:03;2.63;;;0.88;;
74793;SDS011;63320;50.768;6.724;2024-02-26T01:36:29;2.72;;;0.70;;
74793;SDS011;63320;50.768;6.724;2024-02-26T01:38:54;3.05;;;0.90;;
74793;SDS011;63320;50.768;6.724;2024-02-26T01:41:19;2.72;;;0.90;;
74793;SDS011;63320;50.768;6.724;2024-02-26T01:43:45;3.55;;;0.70;;
74793;SDS011;63320;50.768;6.724;2024-02-26T01:46:10;1.70;;;0.70;;
74793;SDS011;63320;50.768;6.724;2024-02-26T01:48:38;2.75;;;0.93;;
74793;SDS011;63320;50.768;6.724;2024-02-26T01:51:05;2.70;;;1.10;;
74793;SDS011;63320;50.768;6.724;2024-02-26T01:53:30;3.25;;;0.70;;
74793;SDS011;63320;50.768;6.724;2024-02-26T01:55:56;2.72;;;1.00;;
74793;SDS011;63320;50.768;6.724;2024-02-26T01:58:22;2.67;;;0.82;;
74793;SDS011;63320;50.768;6.724;2024-02-26T02:00:48;2.40;;;0.70;;
74793;SDS011;63320;50.768;6.724;2024-02-26T02:03:14;3.00;;;1.02;;
74793;SDS011;63320;50.768;6.724;2024-02-26T02:05:39;2.10;;;0.68;;
74793;SDS011;63320;50.768;6.724;2024-02-26T02:08:06;2.88;;;0.80;;
74793;SDS011;63320;50.768;6.724;2024-02-26T02:10:32;2.72;;;0.90;;
74793;SDS011;63320;50.768;6.724;2024-02-26T02:12:57;2.72;;;0.90;;
74793;SDS011;63320;50.768;6.724;2024-02-26T02:15:23;3.25;;;0.82;;
74793;SDS011;63320;50.768;6.724;2024-02-26T02:17:48;2.47;;;0.80;;
74793;SDS011;63320;50.768;6.724;2024-02-26T02:20:15;1.13;;;0.52;;
74793;SDS011;63320;50.768;6.724;2024-02-26T02:22:42;2.38;;;0.75;;
74793;SDS011;63320;50.768;6.724;2024-02-26T02:25:08;2.75;;;0.88;;
74793;SDS011;63320;50.768;6.724;2024-02-26T02:27:33;2.72;;;0.70;;
74793;SDS011;63320;50.768;6.724;2024-02-26T02:29:59;2.85;;;1.00;;
74793;SDS011;63320;50.768;6.724;2024-02-26T02:32:25;3.35;;;0.82;;
74793;SDS011;63320;50.768;6.724;2024-02-26T02:34:51;2.95;;;0.90;;
74793;SDS011;63320;50.768;6.724;2024-02-26T02:37:17;2.42;;;0.77;;
74793;SDS011;63320;50.768;6.724;2024-02-26T02:39:43;3.42;;;1.05;;
74793;SDS011;63320;50.768;6.724;2024-02-26T02:42:09;3.67;;;1.08;;
74793;SDS011;63320;50.768;6.724;2024-02-26T02:44:34;3.28;;;0.85;;
74793;SDS011;63320;50.768;6.724;2024-02-26T02:46:59;2.78;;;0.80;;
74793;SDS011;63320;50.768;6.724;2024-02-26T02:49:25;1.95;;;0.80;;
74793;SDS011;63320;50.768;6.724;2024-02-26T02:51:50;2.53;;;0.80;;
74793;SDS011;63320;50.768;6.724;2024-02-26T02:54:16;1.90;;;0.80;;
74793;SDS011;63320;50.768;6.724;2024-02-26T02:56:42;2.05;;;0.70;;
74793;SDS011;63320;50.768;6.724;2024-02-26T02:59:08;4.10;;;1.02;;
74793;SDS011;63320;50.768;6.724;2024-02-26T03:01:33;1.98;;;1.13;;
74793;SDS011;63320;50.768;6.724;2024-02-26T03:03:58;2.13;;;0.50;;
74793;SDS011;63320;50.768;6.724;2024-02-26T03:06:24;2.47;;;0.70;;
74793;SDS011;63320;50.768;6.724;2024-02-26T03:08:49;2.13;;;0.68;;
74793;SDS011;63320;50.768;6.724;2024-02-26T03:11:15;3.05;;;0.85;;
74793;SDS011;63320;50.768;6.724;2024-02-26T03:13:42;2.67;;;0.90;;
74793;SDS011;63320;50.768;6.724;2024-02-26T03:16:07;2.63;;;0.70;;
74793;SDS011;63320;50.768;6.724;2024-02-26T03:18:33;2.25;;;0.70;;
74793;SDS011;63320;50.768;6.724;2024-02-26T03:20:58;2.05;;;0.60;;
74793;SDS011;63320;50.768;6.724;2024-02-26T03:23:24;2.90;;;0.80;;
74793;SDS011;63320;50.768;6.724;2024-02-26T03:25:49;3.03;;;1.00;;
74793;SDS011;63320;50.768;6.724;2024-02-26T03:28:14;2.72;;;0.80;;
74793;SDS011;63320;50.768;6.724;2024-02-26T03:30:41;1.92;;;0.70;;
74793;SDS011;63320;50.768;6.724;2024-02-26T03:33:07;1.40;;;0.60;;
74793;SDS011;63320;50.768;6.724;2024-02-26T03:35:32;2.90;;;0.75;;
74793;SDS011;63320;50.768;6.724;2024-02-26T03:37:57;2.83;;;0.80;;
74793;SDS011;63320;50.768;6.724;2024-02-26T03:40:23;1.08;;;0.50;;
74793;SDS011;63320;50.768;6.724;2024-02-26T03:42:48;1.60;;;0.75;;
74793;SDS011;63320;50.768;6.724;2024-02-26T03:45:14;1.95;;;0.73;;
74793;SDS011;63320;50.768;6.724;2024-02-26T03:47:40;4.25;;;1.00;;
74793;SDS011;63320;50.768;6.724;2024-02-26T03:50:06;2.10;;;0.88;;
74793;SDS011;63320;50.768;6.724;2024-02-26T03:52:32;4.57;;;0.88;;
74793;SDS011;63320;50.768;6.724;2024-02-26T03:54:58;4.18;;;1.00;;
74793;SDS011;63320;50.768;6.724;2024-02-26T03:57:24;2.28;;;0.90;;
74793;SDS011;63320;50.768;6.724;2024-02-26T03:59:49;2.63;;;0.95;;
74793;SDS011;63320;50.768;6.724;2024-02-26T04:02:14;3.55;;;0.90;;
74793;SDS011;63320;50.768;6.724;2024-02-26T04:04:42;2.40;;;0.80;;
74793;SDS011;63320;50.768;6.724;2024-02-26T04:07:08;1.98;;;0.77;;
74793;SDS011;63320;50.768;6.724;2024-02-26T04:09:33;2.38;;;0.95;;
74793;SDS011;63320;50.768;6.724;2024-02-26T04:11:59;5.28;;;0.95;;
74793;SDS011;63320;50.768;6.724;2024-02-26T04:14:24;3.38;;;0.82;;
74793;SDS011;63320;50.768;6.724;2024-02-26T04:16:49;2.38;;;0.90;;
74793;SDS011;63320;50.768;6.724;2024-02-26T04:19:15;2.50;;;0.90;;
74793;SDS011;63320;50.768;6.724;2024-02-26T04:21:42;2.38;;;0.82;;
74793;SDS011;63320;50.768;6.724;2024-02-26T04:24:07;2.90;;;0.77;;
74793;SDS011;63320;50.768;6.724;2024-02-26T04:26:33;2.17;;;0.90;;
74793;SDS011;63320;50.768;6.724;2024-02-26T04:28:58;3.40;;;0.90;;
74793;SDS011;63320;50.768;6.724;2024-02-26T04:31:24;3.30;;;0.75;;
74793;SDS011;63320;50.768;6.724;2024-02-26T04:33:50;3.40;;;1.00;;
74793;SDS011;63320;50.768;6.724;2024-02-26T04:36:15;4.97;;;0.90;;
74793;SDS011;63320;50.768;6.724;2024-02-26T04:38:42;2.80;;;1.23;;
74793;SDS011;63320;50.768;6.724;2024-02-26T04:41:07;5.05;;;1.00;;
74793;SDS011;63320;50.768;6.724;2024-02-26T04:43:33;2.53;;;0.90;;
74793;SDS011;63320;50.768;6.724;2024-02-26T04:45:58;3.78;;;1.55;;
74793;SDS011;63320;50.768;6.724;2024-02-26T04:48:23;3.13;;;1.02;;
74793;SDS011;63320;50.768;6.724;2024-02-26T04:50:49;2.72;;;0.80;;
74793;SDS011;63320;50.768;6.724;2024-02-26T04:53:14;3.50;;;1.02;;
74793;SDS011;63320;50.768;6.724;2024-02-26T04:55:41;4.07;;;0.88;;
74793;SDS011;63320;50.768;6.724;2024-02-26T04:58:06;3.72;;;0.80;;
74793;SDS011;63320;50.768;6.724;2024-02-26T05:00:32;3.60;;;0.85;;
74793;SDS011;63320;50.768;6.724;2024-02-26T05:02:57;2.25;;;0.73;;
74793;SDS011;63320;50.768;6.724;2024-02-26T05:05:22;3.90;;;1.10;;
74793;SDS011;63320;50.768;6.724;2024-02-26T05:07:48;2.20;;;0.90;;
74793;SDS011;63320;50.768;6.724;2024-02-26T05:10:13;3.20;;;0.90;;
74793;SDS011;63320;50.768;6.724;2024-02-26T05:12:40;4.00;;;0.88;;
74793;SDS011;63320;50.768;6.724;2024-02-26T05:15:06;4.85;;;0.80;;
74793;SDS011;63320;50.768;6.724;2024-02-26T05:17:31;3.88;;;0.90;;
74793;SDS011;63320;50.768;6.724;2024-02-26T05:19:57;3.60;;;1.30;;
74793;SDS011;63320;50.768;6.724;2024-02-26T05:22:22;3.60;;;1.20;;
74793;SDS011;63320;50.768;6.724;2024-02-26T05:24:48;4.05;;;1.55;;
74793;SDS011;63320;50.768;6.724;2024-02-26T05:27:13;2.55;;;0.95;;
74793;SDS011;63320;50.768;6.724;2024-02-26T05:29:40;2.60;;;0.82;;
74793;SDS011;63320;50.768;6.724;2024-02-26T05:32:05;3.45;;;1.20;;
74793;SDS011;63320;50.768;6.724;2024-02-26T05:34:31;3.10;;;1.23;;
74793;SDS011;63320;50.768;6.724;2024-02-26T05:36:56;3.17;;;1.02;;
74793;SDS011;63320;50.768;6.724;2024-02-26T05:39:22;4.18;;;1.20;;
74793;SDS011;63320;50.768;6.724;2024-02-26T05:41:47;3.50;;;1.17;;
74793;SDS011;63320;50.768;6.724;2024-02-26T05:44:12;4.22;;;1.40;;
74793;SDS011;63320;50.768;6.724;2024-02-26T05:46:39;3.90;;;1.40;;
74793;SDS011;63320;50.768;6.724;2024-02-26T05:49:05;3.83;;;1.40;;
74793;SDS011;63320;50.768;6.724;2024-02-26T05:51:30;4.80;;;1.55;;
74793;SDS011;63320;50.768;6.724;2024-02-26T05:53:55;3.40;;;1.33;;
74793;SDS011;63320;50.768;6.724;2024-02-26T05:56:21;3.55;;;1.20;;
74793;SDS011;63320;50.768;6.724;2024-02-26T05:58:46;3.90;;;1.30;;
74793;SDS011;63320;50.768;6.724;2024-02-26T06:01:12;5.25;;;1.30;;
74793;SDS011;63320;50.768;6.724;2024-02-26T06:03:38;2.90;;;1.00;;
74793;SDS011;63320;50.768;6.724;2024-02-26T06:06:04;4.25;;;1.27;;
74793;SDS011;63320;50.768;6.724;2024-02-26T06:08:29;4.32;;;1.55;;
74793;SDS011;63320;50.768;6.724;2024-02-26T06:10:55;3.80;;;1.00;;
74793;SDS011;63320;50.768;6.724;2024-02-26T06:13:20;3.05;;;1.20;;
74793;SDS011;63320;50.768;6.724;2024-02-26T06:15:45;4.85;;;1.48;;
74793;SDS011;63320;50.768;6.724;2024-02-26T06:18:11;7.50;;;2.25;;
74793;SDS011;63320;50.768;6.724;2024-02-26T06:20:37;5.95;;;1.98;;
74793;SDS011;63320;50.768;6.724;2024-02-26T06:23:03;4.25;;;1.40;;
74793;SDS011;63320;50.768;6.724;2024-02-26T06:25:29;4.13;;;1.38;;
74793;SDS011;63320;50.768;6.724;2024-02-26T06:27:54;5.85;;;1.30;;
74793;SDS011;63320;50.768;6.724;2024-02-26T06:30:19;4.50;;;1.58;;
74793;SDS011;63320;50.768;6.724;2024-02-26T06:32:45;3.92;;;1.60;;
74793;SDS011;63320;50.768;6.724;2024-02-26T06:35:10;3.22;;;1.45;;
74793;SDS011;63320;50.768;6.724;2024-02-26T06:37:37;2.67;;;1.17;;
74793;SDS011;63320;50.768;6.724;2024-02-26T06:40:03;3.10;;;1.20;;
74793;SDS011;63320;50.768;6.724;2024-02-26T06:42:29;5.30;;;1.90;;
74793;SDS011;63320;50.768;6.724;2024-02-26T06:44:54;5.75;;;1.60;;
74793;SDS011;63320;50.768;6.724;2024-02-26T06:47:19;6.30;;;1.63;;
74793;SDS011;63320;50.768;6.724;2024-02-26T06:49:45;4.63;;;1.48;;
74793;SDS011;63320;50.768;6.724;2024-02-26T06:52:10;5.45;;;1.55;;
74793;SDS011;63320;50.768;6.724;2024-02-26T06:54:37;3.92;;;1.63;;
74793;SDS011;63320;50.768;6.724;2024-02-26T06:57:03;9.20;;;1.60;;
74793;SDS011;63320;50.768;6.724;2024-02-26T06:59:28;7.68;;;1.83;;
74793;SDS011;63320;50.768;6.724;2024-02-26T07:01:54;7.93;;;1.70;;
74793;SDS011;63320;50.768;6.724;2024-02-26T07:04:19;5.43;;;1.67;;
74793;SDS011;63320;50.768;6.724;2024-02-26T07:06:44;5.75;;;1.90;;
74793;SDS011;63320;50.768;6.724;2024-02-26T07:09:10;4.57;;;1.58;;
74793;SDS011;63320;50.768;6.724;2024-02-26T07:11:37;7.18;;;3.03;;
74793;SDS011;63320;50.768;6.724;2024-02-26T07:14:02;7.55;;;3.10;;
74793;SDS011;63320;50.768;6.724;2024-02-26T07:16:27;5.13;;;2.15;;
74793;SDS011;63320;50.768;6.724;2024-02-26T07:18:53;8.95;;;2.58;;
74793;SDS011;63320;50.768;6.724;2024-02-26T07:21:18;9.07;;;3.42;;
74793;SDS011;63320;50.768;6.724;2024-02-26T07:23:43;7.25;;;2.92;;
74793;SDS011;63320;50.768;6.724;2024-02-26T07:26:09;8.32;;;3.22;;
74793;SDS011;63320;50.768;6.724;2024-02-26T07:28:36;6.57;;;2.67;;
74793;SDS011;63320;50.768;6.724;2024-02-26T07:31:01;6.60;;;3.28;;
74793;SDS011;63320;50.768;6.724;2024-02-26T07:33:26;7.72;;;3.67;;
74793;SDS011;63320;50.768;6.724;2024-02-26T07:35:52;6.95;;;3.42;;
74793;SDS011;63320;50.768;6.724;2024-02-26T07:38:17;10.35;;;4.47;;
74793;SDS011;63320;50.768;6.724;2024-02-26T07:40:43;11.45;;;5.13;;
74793;SDS011;63320;50.768;6.724;2024-02-26T07:43:08;9.25;;;4.10;;
74793;SDS011;63320;50.768;6.724;2024-02-26T07:45:35;11.02;;;5.03;;
74793;SDS011;63320;50.768;6.724;2024-02-26T07:48:00;7.63;;;4.03;;
74793;SDS011;63320;50.768;6.724;2024-02-26T07:50:26;7.78;;;3.65;;
74793;SDS011;63320;50.768;6.724;2024-02-26T07:52:51;6.80;;;3.30;;
74793;SDS011;63320;50.768;6.724;2024-02-26T07:55:17;6.18;;;2.50;;
74793;SDS011;63320;50.768;6.724;2024-02-26T07:57:42;6.68;;;3.17;;
74793;SDS011;63320;50.768;6.724;2024-02-26T08:00:08;9.07;;;3.40;;
74793;SDS011;63320;50.768;6.724;2024-02-26T08:02:36;7.50;;;3.10;;
74793;SDS011;63320;50.768;6.724;2024-02-26T08:05:01;7.20;;;3.20;;
74793;SDS011;63320;50.768;6.724;2024-02-26T08:07:27;8.32;;;3.97;;
74793;SDS011;63320;50.768;6.724;2024-02-26T08:09:53;6.25;;;2.55;;
74793;SDS011;63320;50.768;6.724;2024-02-26T08:12:18;8.00;;;3.72;;
74793;SDS011;63320;50.768;6.724;2024-02-26T08:14:43;5.45;;;2.60;;
74793;SDS011;63320;50.768;6.724;2024-02-26T08:17:09;6.03;;;3.58;;
74793;SDS011;63320;50.768;6.724;2024-02-26T08:19:36;9.32;;;5.80;;
74793;SDS011;63320;50.768;6.724;2024-02-26T08:22:01;13.52;;;5.22;;
74793;SDS011;63320;50.768;6.724;2024-02-26T08:24:26;10.95;;;7.30;;
74793;SDS011;63320;50.768;6.724;2024-02-26T08:26:52;6.00;;;3.70;;
74793;SDS011;63320;50.768;6.724;2024-02-26T08:29:17;5.70;;;2.80;;
74793;SDS011;63320;50.768;6.724;2024-02-26T08:31:43;6.95;;;2.90;;
74793;SDS011;63320;50.768;6.724;2024-02-26T08:34:08;6.57;;;2.50;;
74793;SDS011;63320;50.768;6.724;2024-02-26T08:36:35;4.47;;;2.10;;
74793;SDS011;63320;50.768;6.724;2024-02-26T08:39:00;7.13;;;2.72;;
74793;SDS011;63320;50.768;6.724;2024-02-26T08:41:26;8.90;;;2.95;;
74793;SDS011;63320;50.768;6.724;2024-02-26T08:43:51;6.63;;;2.65;;
74793;SDS011;63320;50.768;6.724;2024-02-26T08:46:16;5.72;;;2.15;;
74793;SDS011;63320;50.768;6.724;2024-02-26T08:48:42;5.85;;;2.05;;
74793;SDS011;63320;50.768;6.724;2024-02-26T08:51:07;5.35;;;2.20;;
74793;SDS011;63320;50.768;6.724;2024-02-26T08:53:34;4.60;;;2.05;;
74793;SDS011;63320;50.768;6.724;2024-02-26T08:56:00;4.75;;;1.80;;
74793;SDS011;63320;50.768;6.724;2024-02-26T08:58:26;5.82;;;2.25;;
74793;SDS011;63320;50.768;6.724;2024-02-26T09:00:52;6.35;;;2.35;;
74793;SDS011;63320;50.768;6.724;2024-02-26T09:03:17;8.10;;;2.05;;
74793;SDS011;63320;50.768;6.724;2024-02-26T09:05:43;4.93;;;1.73;;
74793;SDS011;63320;50.768;6.724;2024-02-26T09:08:08;5.10;;;2.22;;
74793;SDS011;63320;50.768;6.724;2024-02-26T09:10:35;10.18;;;6.82;;
74793;SDS011;63320;50.768;6.724;2024-02-26T09:13:00;5.22;;;2.30;;
74793;SDS011;63320;50.768;6.724;2024-02-26T09:15:26;5.53;;;2.10;;
74793;SDS011;63320;50.768;6.724;2024-02-26T09:17:51;5.20;;;1.85;;
74793;SDS011;63320;50.768;6.724;2024-02-26T09:20:16;4.30;;;1.55;;
74793;SDS011;63320;50.768;6.724;2024-02-26T09:22:42;4.78;;;2.10;;
74793;SDS011;63320;50.768;6.724;2024-02-26T09:25:07;6.32;;;2.20;;
74793;SDS011;63320;50.768;6.724;2024-02-26T09:27:34;5.72;;;2.53;;
74793;SDS011;63320;50.768;6.724;2024-02-26T09:30:00;5.10;;;1.80;;
74793;SDS011;63320;50.768;6.724;2024-02-26T09:32:25;5.95;;;2.22;;
74793;SDS011;63320;50.768;6.724;2024-02-26T09:34:50;5.10;;;2.03;;
74793;SDS011;63320;50.768;6.724;2024-02-26T09:37:16;5.72;;;2.20;;
74793;SDS011;63320;50.768;6.724;2024-02-26T09:39:41;5.18;;;1.88;;
74793;SDS011;63320;50.768;6.724;2024-02-26T09:42:07;5.68;;;2.50;;
74793;SDS011;63320;50.768;6.724;2024-02-26T09:44:35;4.93;;;2.10;;
74793;SDS011;63320;50.768;6.724;2024-02-26T09:47:01;4.18;;;1.80;;
74793;SDS011;63320;50.768;6.724;2024-02-26T09:49:26;6.50;;;2.35;;
74793;SDS011;63320;50.768;6.724;2024-02-26T09:51:52;6.18;;;2.22;;
74793;SDS011;63320;50.768;6.724;2024-02-26T09:54:21;5.57;;;2.17;;
74793;SDS011;63320;50.768;6.724;2024-02-26T09:56:47;5.13;;;2.00;;
74793;SDS011;63320;50.768;6.724;2024-02-26T09:59:16;4.95;;;2.10;;
74793;SDS011;63320;50.768;6.724;2024-02-26T10:01:44;6.15;;;2.55;;
74793;SDS011;63320;50.768;6.724;2024-02-26T10:04:12;6.63;;;3.88;;
74793;SDS011;63320;50.768;6.724;2024-02-26T10:06:38;7.10;;;3.45;;
74793;SDS011;63320;50.768;6.724;2024-02-26T10:09:04;7.20;;;4.25;;
74793;SDS011;63320;50.768;6.724;2024-02-26T10:11:30;7.68;;;3.47;;
74793;SDS011;63320;50.768;6.724;2024-02-26T10:13:57;5.60;;;2.90;;
74793;SDS011;63320;50.768;6.724;2024-02-26T10:16:22;4.22;;;2.10;;
74793;SDS011;63320;50.768;6.724;2024-02-26T10:18:49;5.03;;;2.00;;
74793;SDS011;63320;50.768;6.724;2024-02-26T10:21:16;5.75;;;2.58;;
74793;SDS011;63320;50.768;6.724;2024-02-26T10:23:42;6.28;;;2.40;;
74793;SDS011;63320;50.768;6.724;2024-02-26T10:26:07;5.85;;;1.92;;
74793;SDS011;63320;50.768;6.724;2024-02-26T10:28:35;5.40;;;1.70;;
74793;SDS011;63320;50.768;6.724;2024-02-26T10:31:01;4.05;;;1.92;;
74793;SDS011;63320;50.768;6.724;2024-02-26T10:33:27;5.53;;;1.80;;
74793;SDS011;63320;50.768;6.724;2024-02-26T10:35:53;5.07;;;2.22;;
74793;SDS011;63320;50.768;6.724;2024-02-26T10:38:19;4.35;;;2.08;;
74793;SDS011;63320;50.768;6.724;2024-02-26T10:40:44;4.90;;;2.00;;
74793;SDS011;63320;50.768;6.724;2024-02-26T10:43:10;4.20;;;1.80;;
74793;SDS011;63320;50.768;6.724;2024-02-26T10:45:35;6.30;;;2.08;;
74793;SDS011;63320;50.768;6.724;2024-02-26T10:48:00;5.15;;;2.20;;
74793;SDS011;63320;50.768;6.724;2024-02-26T10:50:26;4.40;;;1.80;;
74793;SDS011;63320;50.768;6.724;2024-02-26T10:52:53;5.15;;;2.20;;
74793;SDS011;63320;50.768;6.724;2024-02-26T10:55:20;5.60;;;2.15;;
74793;SDS011;63320;50.768;6.724;2024-02-26T10:57:47;5.85;;;2.25;;
74793;SDS011;63320;50.768;6.724;2024-02-26T11:00:13;6.75;;;2.00;;
74793;SDS011;63320;50.768;6.724;2024-02-26T11:02:40;5.95;;;2.30;;
74793;SDS011;63320;50.768;6.724;2024-02-26T11:05:06;5.57;;;2.30;;
74793;SDS011;63320;50.768;6.724;2024-02-26T11:07:33;4.05;;;1.90;;
74793;SDS011;63320;50.768;6.724;2024-02-26T11:10:01;5.43;;;2.47;;
74793;SDS011;63320;50.768;6.724;2024-02-26T11:12:28;10.07;;;2.50;;
74793;SDS011;63320;50.768;6.724;2024-02-26T11:14:55;5.03;;;1.98;;
74793;SDS011;63320;50.768;6.724;2024-02-26T11:17:21;6.47;;;2.47;;
74793;SDS011;63320;50.768;6.724;2024-02-26T11:19:47;6.28;;;2.75;;
74793;SDS011;63320;50.768;6.724;2024-02-26T11:22:14;6.10;;;2.38;;
74793;SDS011;63320;50.768;6.724;2024-02-26T11:24:39;7.68;;;2.58;;
74793;SDS011;63320;50.768;6.724;2024-02-26T11:27:06;5.80;;;2.83;;
74793;SDS011;63320;50.768;6.724;2024-02-26T11:29:37;6.70;;;2.30;;
74793;SDS011;63320;50.768;6.724;2024-02-26T11:32:05;4.90;;;1.90;;
74793;SDS011;63320;50.768;6.724;2024-02-26T11:34:31;5.90;;;2.47;;
74793;SDS011;63320;50.768;6.724;2024-02-26T11:36:57;7.60;;;3.00;;
74793;SDS011;63320;50.768;6.724;2024-02-26T11:39:23;5.97;;;2.70;;
74793;SDS011;63320;50.768;6.724;2024-02-26T11:41:49;6.10;;;3.03;;
74793;SDS011;63320;50.768;6.724;2024-02-26T11:44:16;5.63;;;2.75;;
74793;SDS011;63320;50.768;6.724;2024-02-26T11:46:54;6.03;;;2.40;;
74793;SDS011;63320;50.768;6.724;2024-02-26T11:49:30;5.70;;;2.53;;
74793;SDS011;63320;50.768;6.724;2024-02-26T11:51:57;7.90;;;3.10;;
74793;SDS011;63320;50.768;6.724;2024-02-26T11:54:39;6.82;;;3.30;;
74793;SDS011;63320;50.768;6.724;2024-02-26T11:57:21;10.57;;;4.53;;
74793;SDS011;63320;50.768;6.724;2024-02-26T11:59:48;6.18;;;3.10;;
74793;SDS011;63320;50.768;6.724;2024-02-26T12:05:05;6.43;;;2.88;;
74793;SDS011;63320;50.768;6.724;2024-02-26T12:07:32;9.75;;;3.20;;
74793;SDS011;63320;50.768;6.724;2024-02-26T12:10:13;7.20;;;3.30;;
74793;SDS011;63320;50.768;6.724;2024-02-26T12:12:40;9.10;;;3.70;;
74793;SDS011;63320;50.768;6.724;2024-02-26T12:15:07;9.65;;;3.80;;
74793;SDS011;63320;50.768;6.724;2024-02-26T12:17:33;9.02;;;3.95;;
74793;SDS011;63320;50.768;6.724;2024-02-26T12:20:07;10.38;;;4.55;;
74793;SDS011;63320;50.768;6.724;2024-02-26T12:22:33;8.48;;;3.83;;
74793;SDS011;63320;50.768;6.724;2024-02-26T12:24:59;7.97;;;3.00;;
74793;SDS011;63320;50.768;6.724;2024-02-26T12:27:24;6.47;;;2.78;;
74793;SDS011;63320;50.768;6.724;2024-02-26T12:29:50;4.90;;;2.55;;
74793;SDS011;63320;50.768;6.724;2024-02-26T12:32:16;7.45;;;2.80;;
74793;SDS011;63320;50.768;6.724;2024-02-26T12:34:42;6.03;;;2.47;;
74793;SDS011;63320;50.768;6.724;2024-02-26T12:37:07;4.95;;;2.17;;
74793;SDS011;63320;50.768;6.724;2024-02-26T12:39:33;7.15;;;2.78;;
74793;SDS011;63320;50.768;6.724;2024-02-26T12:41:58;6.13;;;2.58;;
74793;SDS011;63320;50.768;6.724;2024-02-26T12:44:24;5.53;;;2.60;;
74793;SDS011;63320;50.768;6.724;2024-02-26T12:46:50;4.70;;;2.50;;
74793;SDS011;63320;50.768;6.724;2024-02-26T12:49:16;6.22;;;3.10;;
74793;SDS011;63320;50.768;6.724;2024-02-26T12:51:42;5.63;;;2.60;;
74793;SDS011;63320;50.768;6.724;2024-02-26T12:54:09;4.75;;;2.50;;
74793;SDS011;63320;50.768;6.724;2024-02-26T12:56:34;6.38;;;2.67;;
74793;SDS011;63320;50.768;6.724;2024-02-26T12:59:00;6.22;;;2.67;;
74793;SDS011;63320;50.768;6.724;2024-02-26T13:01:27;5.95;;;2.70;;
74793;SDS011;63320;50.768;6.724;2024-02-26T13:03:53;6.28;;;3.00;;
74793;SDS011;63320;50.768;6.724;2024-02-26T13:06:20;8.80;;;2.97;;
74793;SDS011;63320;50.768;6.724;2024-02-26T13:08:46;6.15;;;2.70;;
74793;SDS011;63320;50.768;6.724;2024-02-26T13:11:11;7.82;;;3.30;;
74793;SDS011;63320;50.768;6.724;2024-02-26T13:13:37;5.78;;;2.55;;
74793;SDS011;63320;50.768;6.724;2024-02-26T13:16:03;7.18;;;2.97;;
74793;SDS011;63320;50.768;6.724;2024-02-26T13:18:29;6.28;;;2.72;;
74793;SDS011;63320;50.768;6.724;2024-02-26T13:23:33;6.05;;;3.45;;
74793;SDS011;63320;50.768;6.724;2024-02-26T13:25:59;5.97;;;2.85;;
74793;SDS011;63320;50.768;6.724;2024-02-26T13:28:24;5.43;;;2.67;;
74793;SDS011;63320;50.768;6.724;2024-02-26T13:30:50;6.63;;;2.80;;
74793;SDS011;63320;50.768;6.724;2024-02-26T13:33:16;7.80;;;2.80;;
74793;SDS011;63320;50.768;6.724;2024-02-26T13:35:41;7.25;;;3.45;;
74793;SDS011;63320;50.768;6.724;2024-02-26T13:38:06;6.85;;;3.00;;
74793;SDS011;63320;50.768;6.724;2024-02-26T13:40:35;6.82;;;2.75;;
74793;SDS011;63320;50.768;6.724;2024-02-26T13:43:00;6.60;;;3.15;;
74793;SDS011;63320;50.768;6.724;2024-02-26T13:45:26;8.63;;;4.20;;
74793;SDS011;63320;50.768;6.724;2024-02-26T13:47:51;7.40;;;3.70;;
74793;SDS011;63320;50.768;6.724;2024-02-26T13:50:16;7.25;;;3.15;;
74793;SDS011;63320;50.768;6.724;2024-02-26T13:52:42;5.45;;;3.08;;
74793;SDS011;63320;50.768;6.724;2024-02-26T13:55:07;8.77;;;3.58;;
74793;SDS011;63320;50.768;6.724;2024-02-26T13:57:34;6.07;;;3.65;;
74793;SDS011;63320;50.768;6.724;2024-02-26T14:00:00;6.38;;;3.67;;
74793;SDS011;63320;50.768;6.724;2024-02-26T14:02:25;6.50;;;3.80;;
74793;SDS011;63320;50.768;6.724;2024-02-26T14:04:50;6.45;;;3.50;;
74793;SDS011;63320;50.768;6.724;2024-02-26T14:07:16;8.95;;;4.03;;
74793;SDS011;63320;50.768;6.724;2024-02-26T14:09:41;9.10;;;3.55;;
74793;SDS011;63320;50.768;6.724;2024-02-26T14:12:07;7.80;;;3.78;;
74793;SDS011;63320;50.768;6.724;2024-02-26T14:14:34;6.28;;;3.35;;
74793;SDS011;63320;50.768;6.724;2024-02-26T14:16:59;8.82;;;3.30;;
74793;SDS011;63320;50.768;6.724;2024-02-26T14:19:25;7.35;;;3.50;;
74793;SDS011;63320;50.768;6.724;2024-02-26T14:21:51;7.03;;;3.88;;
74793;SDS011;63320;50.768;6.724;2024-02-26T14:24:16;6.45;;;3.25;;
74793;SDS011;63320;50.768;6.724;2024-02-26T14:26:42;8.45;;;4.00;;
74793;SDS011;63320;50.768;6.724;2024-02-26T14:29:07;6.60;;;3.40;;
74793;SDS011;63320;50.768;6.724;2024-02-26T14:31:34;7.63;;;3.28;;
74793;SDS011;63320;50.768;6.724;2024-02-26T14:33:59;8.15;;;3.28;;
74793;SDS011;63320;50.768;6.724;2024-02-26T14:36:25;6.40;;;3.55;;
74793;SDS011;63320;50.768;6.724;2024-02-26T14:38:50;8.45;;;3.80;;
74793;SDS011;63320;50.768;6.724;2024-02-26T14:41:16;7.85;;;3.40;;
74793;SDS011;63320;50.768;6.724;2024-02-26T14:43:41;8.10;;;3.70;;
74793;SDS011;63320;50.768;6.724;2024-02-26T14:46:07;10.30;;;4.00;;